Euskara    
Meteorología y climatología de Navarra
Datos de la estación - Meteo Navarra

Estación de Estella GN

Altitud 486 m.


Datos desde el 22/11/2020 hasta el 23/11/2020 en horario solar
Los datos son PROVISIONALES

Anterior Página 1 de 1 Siguiente Descargar: Formato para Excel 2000 o superior   Formato csv   Formato para OpenOffice Calc
Fecha Temperatura Humedad relativa Radiación global Insolación Precipitación Vel. viento 10 m Vel. viento 10 m Dir. viento 10 m
°C % W/m² s l/m² m/s km/h °
22/11/2020 0:00 0.2 85 0.0 0 0.0 0.6 2.2 321
22/11/2020 0:10 -0.3 90 0.0 0 0.0 0.1 0.4 325
22/11/2020 0:20 -0.3 90 0.0 0 0.0 0.2 0.9 323
22/11/2020 0:30 -0.2 91 0.0 0 0.0 0.6 2.1 336
22/11/2020 0:40 -0.5 92 0.0 0 0.0 0.2 0.8 324
22/11/2020 0:50 -0.7 93 0.0 0 0.0 0.5 1.9 321
22/11/2020 1:00 -0.8 94 0.0 0 0.0 0.5 1.7 328
22/11/2020 1:10 -0.9 95 0.0 0 0.0 0.2 0.7 271
22/11/2020 1:20 -0.9 96 0.0 0 0.0 0.4 1.6 345
22/11/2020 1:30 -0.7 94 0.0 0 0.0 0.7 2.5 341
22/11/2020 1:40 -0.7 93 0.0 0 0.0 1.4 4.9 330
22/11/2020 1:50 -0.9 94 0.0 0 0.0 1.4 5.0 330
22/11/2020 2:00 -1.0 95 0.0 0 0.0 1.7 6.3 333
22/11/2020 2:10 -0.5 92 0.0 0 0.0 1.0 3.7 354
22/11/2020 2:20 -0.7 91 0.0 0 0.0 0.4 1.3 333
22/11/2020 2:30 -1.0 95 0.0 0 0.0 0.0 0.0 0
22/11/2020 2:40 -1.2 97 0.0 0 0.0 0.1 0.2 359
22/11/2020 2:50 -1.2 97 0.0 0 0.0 1.6 5.8 337
22/11/2020 3:00 -1.1 97 0.0 0 0.0 2.5 9.1 334
22/11/2020 3:10 -0.9 96 0.0 0 0.0 1.5 5.4 348
22/11/2020 3:20 -1.1 94 0.0 0 0.0 1.4 4.9 330
22/11/2020 3:30 -1.0 96 0.0 0 0.0 2.1 7.6 325
22/11/2020 3:40 -0.8 94 0.0 0 0.0 2.6 9.2 326
22/11/2020 3:50 -1.0 93 0.0 0 0.0 2.5 8.9 327
22/11/2020 4:00 -1.1 95 0.0 0 0.0 2.3 8.3 325
22/11/2020 4:10 -1.0 95 0.0 0 0.0 2.0 7.1 319
22/11/2020 4:20 -1.0 95 0.0 0 0.0 0.7 2.4 333
22/11/2020 4:30 -1.4 95 0.0 0 0.0 1.6 5.7 327
22/11/2020 4:40 -1.2 97 0.0 0 0.0 2.1 7.5 322
22/11/2020 4:50 -1.1 96 0.0 0 0.0 2.0 7.1 322
22/11/2020 5:00 -1.3 96 0.0 0 0.0 1.5 5.4 329
22/11/2020 5:10 -1.5 97 0.0 0 0.0 0.4 1.6 355
22/11/2020 5:20 -1.6 97 0.0 0 0.0 0.8 2.8 331
22/11/2020 5:30 -2.0 97 0.0 0 0.0 2.1 7.7 328
22/11/2020 5:40 -1.9 97 0.0 0 0.0 2.0 7.3 332
22/11/2020 5:50 -2.0 97 0.0 0 0.0 2.0 7.1 327
22/11/2020 6:00 -1.6 97 0.0 0 0.0 1.5 5.3 323
22/11/2020 6:10 -1.9 97 0.0 0 0.0 1.8 6.4 325
22/11/2020 6:20 -1.9 97 0.0 0 0.0 2.0 7.3 329
22/11/2020 6:30 -1.9 97 0.0 0 0.0 2.4 8.6 332
22/11/2020 6:40 -2.2 97 0.0 0 0.0 2.7 9.6 332
22/11/2020 6:50 -2.1 97 0.0 0 0.0 2.7 9.8 333
22/11/2020 7:00 -2.0 97 0.0 0 0.0 2.8 10.0 326
22/11/2020 7:10 -1.7 97 0.0 0 0.0 2.8 9.9 323
22/11/2020 7:20 -1.4 97 0.0 0 0.0 2.4 8.7 319
22/11/2020 7:30 -1.3 96 3.4 0 0.0 1.1 4.0 321
22/11/2020 7:40 -1.6 95 18.1 0 0.0 1.8 6.3 322
22/11/2020 7:50 -1.8 97 23.9 0 0.0 2.0 7.2 315
22/11/2020 8:00 -1.3 97 64.8 350 0.0 2.6 9.4 323
22/11/2020 8:10 -0.5 92 114.3 600 0.0 2.6 9.4 330
22/11/2020 8:20 0.1 88 142.0 600 0.0 2.7 9.8 330
22/11/2020 8:30 0.5 86 167.2 600 0.0 2.6 9.3 323
22/11/2020 8:40 0.7 84 190.0 600 0.0 2.3 8.2 312
22/11/2020 8:50 0.9 84 217.2 600 0.0 2.4 8.5 313
22/11/2020 9:00 1.2 83 238.2 600 0.0 2.0 7.1 312
22/11/2020 9:10 1.7 81 253.9 600 0.0 1.8 6.4 309
22/11/2020 9:20 2.1 79 268.1 600 0.0 2.1 7.6 313
22/11/2020 9:30 2.7 77 291.2 600 0.0 2.1 7.6 313
22/11/2020 9:40 3.3 75 318.8 600 0.0 1.9 6.8 310
22/11/2020 9:50 4.0 73 342.4 600 0.0 1.8 6.3 312
22/11/2020 10:00 4.4 72 363.3 600 0.0 1.6 5.8 310
22/11/2020 10:10 5.2 69 380.7 600 0.0 1.6 5.7 312
22/11/2020 10:20 6.0 66 396.3 600 0.0 1.4 5.0 316
22/11/2020 10:30 6.7 64 410.7 600 0.0 1.2 4.1 307
22/11/2020 10:40 7.2 61 424.0 600 0.0 1.1 3.8 286
22/11/2020 10:50 7.3 60 436.1 600 0.0 0.9 3.2 267
22/11/2020 11:00 7.8 58 445.9 600 0.0 0.8 2.8 252
22/11/2020 11:10 8.2 58 455.8 600 0.0 1.2 4.2 221
22/11/2020 11:20 8.9 56 463.1 600 0.0 0.9 3.3 222
22/11/2020 11:30 9.3 55 467.7 600 0.0 0.9 3.2 222
22/11/2020 11:40 9.7 54 471.1 600 0.0 1.2 4.1 224
22/11/2020 11:50 10.1 52 473.1 600 0.0 0.9 3.3 216
22/11/2020 12:00 10.3 51 474.6 600 0.0 0.9 3.3 205
22/11/2020 12:10 10.8 50 471.2 600 0.0 1.1 4.0 158
22/11/2020 12:20 11.1 49 470.3 600 0.0 1.2 4.4 181
22/11/2020 12:30 11.0 49 464.8 600 0.0 1.3 4.7 176
22/11/2020 12:40 11.0 48 463.2 600 0.0 1.1 4.0 179
22/11/2020 12:50 11.2 50 448.2 600 0.0 1.5 5.5 187
22/11/2020 13:00 11.3 50 434.0 600 0.0 1.5 5.3 210
22/11/2020 13:10 11.5 49 424.9 600 0.0 1.3 4.6 173
22/11/2020 13:20 11.7 48 415.4 600 0.0 1.3 4.6 199
22/11/2020 13:30 11.9 48 403.8 600 0.0 1.5 5.3 193
22/11/2020 13:40 12.0 48 389.1 600 0.0 1.3 4.7 198
22/11/2020 13:50 12.2 47 379.2 600 0.0 1.1 4.0 191
22/11/2020 14:00 12.2 47 361.7 600 0.0 1.5 5.3 205
22/11/2020 14:10 12.1 47 319.0 600 0.0 1.3 4.8 197
22/11/2020 14:20 12.3 47 307.4 600 0.0 1.4 5.0 212
22/11/2020 14:30 12.4 47 286.3 600 0.0 1.3 4.6 204
22/11/2020 14:40 12.2 47 272.8 600 0.0 1.2 4.1 190
22/11/2020 14:50 12.2 47 246.1 600 0.0 1.4 5.0 199
22/11/2020 15:00 12.4 46 217.3 600 0.0 1.1 3.8 194
22/11/2020 15:10 12.5 46 199.6 600 0.0 1.0 3.7 195
22/11/2020 15:20 12.3 47 170.8 600 0.0 1.1 4.0 201
22/11/2020 15:30 11.9 47 149.4 600 0.0 1.1 4.0 201
22/11/2020 15:40 12.2 46 123.5 600 0.0 0.6 2.3 199
22/11/2020 15:50 12.0 48 97.6 600 0.0 0.7 2.6 182
22/11/2020 16:00 11.4 49 72.0 600 0.0 0.5 1.8 162
22/11/2020 16:10 11.2 49 47.4 448 0.0 0.9 3.1 159
22/11/2020 16:20 10.8 50 14.8 0 0.0 0.7 2.5 108
22/11/2020 16:30 9.6 55 0.0 0 0.0 1.1 3.9 73
22/11/2020 16:40 8.1 61 0.0 0 0.0 1.2 4.4 65
22/11/2020 16:50 7.1 64 0.0 0 0.0 0.9 3.2 57
22/11/2020 17:00 6.9 65 0.0 0 0.0 1.3 4.5 64
22/11/2020 17:10 6.7 65 0.0 0 0.0 0.6 2.3 57
22/11/2020 17:20 6.7 66 0.0 0 0.0 0.0 0.0 54
22/11/2020 17:30 6.3 68 0.0 0 0.0 0.3 1.0 57
22/11/2020 17:40 5.9 70 0.0 0 0.0 0.0 0.0 0
22/11/2020 17:50 5.5 71 0.0 0 0.0 0.5 1.7 66
22/11/2020 18:00 5.2 73 0.0 0 0.0 0.0 0.1 54
22/11/2020 18:10 4.7 76 0.0 0 0.0 0.2 0.9 57
22/11/2020 18:20 4.6 76 0.0 0 0.0 0.5 1.9 349
22/11/2020 18:30 4.3 77 0.0 0 0.0 0.0 0.0 0
22/11/2020 18:40 4.3 77 0.0 0 0.0 0.2 0.6 42
22/11/2020 18:50 4.1 79 0.0 0 0.0 0.0 0.1 51
22/11/2020 19:00 3.9 79 0.0 0 0.0 0.0 0.1 52
22/11/2020 19:10 3.8 80 0.0 0 0.0 0.3 1.1 61
22/11/2020 19:20 3.8 81 0.0 0 0.0 0.8 2.8 318
22/11/2020 19:30 3.4 83 0.0 0 0.0 0.0 0.0 272
22/11/2020 19:40 3.4 83 0.0 0 0.0 0.0 0.1 284
22/11/2020 19:50 3.4 85 0.0 0 0.0 0.5 1.8 323
22/11/2020 20:00 3.0 86 0.0 0 0.0 0.2 0.7 306
22/11/2020 20:10 2.9 90 0.0 0 0.0 0.9 3.2 319
22/11/2020 20:20 3.5 90 0.0 0 0.0 0.9 3.2 321
22/11/2020 20:30 3.3 87 0.0 0 0.0 0.8 2.8 336
22/11/2020 20:40 3.5 88 0.0 0 0.0 0.8 2.8 354
22/11/2020 20:50 3.5 88 0.0 0 0.0 1.4 5.1 325
22/11/2020 21:00 3.6 88 0.0 0 0.0 1.4 4.9 314
22/11/2020 21:10 3.6 86 0.0 0 0.0 0.9 3.2 301
22/11/2020 21:20 2.8 87 0.0 0 0.0 0.9 3.3 321
22/11/2020 21:30 2.4 92 0.0 0 0.0 0.6 2.2 342
22/11/2020 21:40 2.3 93 0.0 0 0.0 1.2 4.3 318
22/11/2020 21:50 1.9 94 0.0 0 0.0 1.9 6.9 326
22/11/2020 22:00 2.2 96 0.0 0 0.0 2.0 7.2 323
22/11/2020 22:10 2.3 93 0.0 0 0.0 1.2 4.2 320
22/11/2020 22:20 1.8 93 0.0 0 0.0 1.2 4.4 319
22/11/2020 22:30 1.4 96 0.0 0 0.0 1.8 6.3 317
22/11/2020 22:40 1.5 97 0.0 0 0.0 1.7 6.2 328
22/11/2020 22:50 1.6 97 0.0 0 0.0 1.6 5.8 325
22/11/2020 23:00 1.6 96 0.0 0 0.0 1.5 5.4 308
22/11/2020 23:10 1.0 96 0.0 0 0.0 1.9 6.8 326
22/11/2020 23:20 1.3 97 0.0 0 0.0 2.0 7.1 335
22/11/2020 23:30 2.1 95 0.0 0 0.0 1.2 4.3 333
22/11/2020 23:40 2.1 92 0.0 0 0.0 2.1 7.5 320
22/11/2020 23:50 1.9 91 0.0 0 0.0 2.2 7.9 337
Anterior Página 1 de 1 Siguiente

NOTA: Tipo de datos según el color:
   - Valores diarios o 10 minutos correctos
   - Valores diarios calculados a partir de un número de datos 10 minutos menor que 144 y mayor que 120, o de un número de datos semihorarios menor que 48 y mayor que 40 (caso de las estaciones de INTIA Y Ministerio)
   - Valores diez minutos estimados


Contacto        Enlaces        Aviso legal